sensor_id;sensor_type;location;lat;lon;timestamp;P1;P2;P0
44684;PMS5003;76140;45.696;8.652;2024-01-30T00:01:00;155;135;
44684;PMS5003;76140;45.696;8.652;2024-01-30T00:03:26;151;138;
44684;PMS5003;76140;45.696;8.652;2024-01-30T00:05:51;154;143;
44684;PMS5003;76140;45.696;8.652;2024-01-30T00:08:16;245;231;
44684;PMS5003;76140;45.696;8.652;2024-01-30T00:10:42;304;270;
44684;PMS5003;76140;45.696;8.652;2024-01-30T00:13:07;298;273;
44684;PMS5003;76140;45.696;8.652;2024-01-30T00:15:32;211;185;
44684;PMS5003;76140;45.696;8.652;2024-01-30T00:17:58;148;139;
44684;PMS5003;76140;45.696;8.652;2024-01-30T00:20:23;156;139;
44684;PMS5003;76140;45.696;8.652;2024-01-30T00:22:49;140;129;
44684;PMS5003;76140;45.696;8.652;2024-01-30T00:25:14;138;128;
44684;PMS5003;76140;45.696;8.652;2024-01-30T00:27:39;141;133;
44684;PMS5003;76140;45.696;8.652;2024-01-30T00:30:05;157;137;
44684;PMS5003;76140;45.696;8.652;2024-01-30T00:32:30;142;134;
44684;PMS5003;76140;45.696;8.652;2024-01-30T00:34:55;144;134;
44684;PMS5003;76140;45.696;8.652;2024-01-30T00:37:20;142;130;
44684;PMS5003;76140;45.696;8.652;2024-01-30T00:39:46;139;118;
44684;PMS5003;76140;45.696;8.652;2024-01-30T00:42:12;138;127;
44684;PMS5003;76140;45.696;8.652;2024-01-30T00:44:37;134;124;
44684;PMS5003;76140;45.696;8.652;2024-01-30T00:47:03;131;119;
44684;PMS5003;76140;45.696;8.652;2024-01-30T00:49:29;136;126;
44684;PMS5003;76140;45.696;8.652;2024-01-30T00:51:54;128;124;
44684;PMS5003;76140;45.696;8.652;2024-01-30T00:54:20;131;122;
44684;PMS5003;76140;45.696;8.652;2024-01-30T00:56:45;133;118;
44684;PMS5003;76140;45.696;8.652;2024-01-30T00:59:11;141;123;
44684;PMS5003;76140;45.696;8.652;2024-01-30T01:01:36;144;129;
44684;PMS5003;76140;45.696;8.652;2024-01-30T01:04:02;136;124;
44684;PMS5003;76140;45.696;8.652;2024-01-30T01:06:27;133;123;
44684;PMS5003;76140;45.696;8.652;2024-01-30T01:08:53;137;123;
44684;PMS5003;76140;45.696;8.652;2024-01-30T01:11:18;140;130;
44684;PMS5003;76140;45.696;8.652;2024-01-30T01:13:44;145;128;
44684;PMS5003;76140;45.696;8.652;2024-01-30T01:16:10;128;116;
44684;PMS5003;76140;45.696;8.652;2024-01-30T01:18:35;126;117;
44684;PMS5003;76140;45.696;8.652;2024-01-30T01:21:00;134;120;
44684;PMS5003;76140;45.696;8.652;2024-01-30T01:23:26;138;130;
44684;PMS5003;76140;45.696;8.652;2024-01-30T01:25:52;129;117;
44684;PMS5003;76140;45.696;8.652;2024-01-30T01:28:17;142;128;
44684;PMS5003;76140;45.696;8.652;2024-01-30T01:30:42;148;139;
44684;PMS5003;76140;45.696;8.652;2024-01-30T01:33:08;143;134;
44684;PMS5003;76140;45.696;8.652;2024-01-30T01:35:33;195;187;
44684;PMS5003;76140;45.696;8.652;2024-01-30T01:37:58;169;156;
44684;PMS5003;76140;45.696;8.652;2024-01-30T01:40:24;160;152;
44684;PMS5003;76140;45.696;8.652;2024-01-30T01:42:49;141;133;
44684;PMS5003;76140;45.696;8.652;2024-01-30T01:45:15;134;126;
44684;PMS5003;76140;45.696;8.652;2024-01-30T01:47:40;129;113;
44684;PMS5003;76140;45.696;8.652;2024-01-30T01:50:05;111;95;
44684;PMS5003;76140;45.696;8.652;2024-01-30T01:52:31;114;105;
44684;PMS5003;76140;45.696;8.652;2024-01-30T01:54:57;101;93;
44684;PMS5003;76140;45.696;8.652;2024-01-30T01:57:22;107;99;
44684;PMS5003;76140;45.696;8.652;2024-01-30T01:59:48;96;90;
44684;PMS5003;76140;45.696;8.652;2024-01-30T02:02:14;91;83;
44684;PMS5003;76140;45.696;8.652;2024-01-30T02:04:39;116;104;
44684;PMS5003;76140;45.696;8.652;2024-01-30T02:07:04;172;170;
44684;PMS5003;76140;45.696;8.652;2024-01-30T02:09:29;130;127;
44684;PMS5003;76140;45.696;8.652;2024-01-30T02:11:55;155;149;
44684;PMS5003;76140;45.696;8.652;2024-01-30T02:14:20;136;128;
44684;PMS5003;76140;45.696;8.652;2024-01-30T02:16:45;134;124;
44684;PMS5003;76140;45.696;8.652;2024-01-30T02:19:11;152;143;
44684;PMS5003;76140;45.696;8.652;2024-01-30T02:21:36;140;126;
44684;PMS5003;76140;45.696;8.652;2024-01-30T02:24:02;132;119;
44684;PMS5003;76140;45.696;8.652;2024-01-30T02:26:27;163;158;
44684;PMS5003;76140;45.696;8.652;2024-01-30T02:28:53;130;122;
44684;PMS5003;76140;45.696;8.652;2024-01-30T02:31:18;166;161;
44684;PMS5003;76140;45.696;8.652;2024-01-30T02:33:44;135;128;
44684;PMS5003;76140;45.696;8.652;2024-01-30T02:36:09;211;206;
44684;PMS5003;76140;45.696;8.652;2024-01-30T02:38:35;202;194;
44684;PMS5003;76140;45.696;8.652;2024-01-30T02:41:01;150;144;
44684;PMS5003;76140;45.696;8.652;2024-01-30T02:43:26;195;189;
44684;PMS5003;76140;45.696;8.652;2024-01-30T02:45:52;177;175;
44684;PMS5003;76140;45.696;8.652;2024-01-30T02:48:17;209;195;
44684;PMS5003;76140;45.696;8.652;2024-01-30T02:50:43;192;188;
44684;PMS5003;76140;45.696;8.652;2024-01-30T02:53:08;192;178;
44684;PMS5003;76140;45.696;8.652;2024-01-30T02:55:34;198;187;
44684;PMS5003;76140;45.696;8.652;2024-01-30T02:57:59;183;173;
44684;PMS5003;76140;45.696;8.652;2024-01-30T03:00:25;124;111;
44684;PMS5003;76140;45.696;8.652;2024-01-30T03:02:51;130;124;
44684;PMS5003;76140;45.696;8.652;2024-01-30T03:05:16;111;103;
44684;PMS5003;76140;45.696;8.652;2024-01-30T03:07:42;116;103;
44684;PMS5003;76140;45.696;8.652;2024-01-30T03:10:07;122;107;
44684;PMS5003;76140;45.696;8.652;2024-01-30T03:12:33;121;111;
44684;PMS5003;76140;45.696;8.652;2024-01-30T03:14:58;119;107;
44684;PMS5003;76140;45.696;8.652;2024-01-30T03:17:24;122;110;
44684;PMS5003;76140;45.696;8.652;2024-01-30T03:19:49;123;109;
44684;PMS5003;76140;45.696;8.652;2024-01-30T03:22:14;126;114;
44684;PMS5003;76140;45.696;8.652;2024-01-30T03:24:40;130;116;
44684;PMS5003;76140;45.696;8.652;2024-01-30T03:27:05;116;107;
44684;PMS5003;76140;45.696;8.652;2024-01-30T03:29:30;129;115;
44684;PMS5003;76140;45.696;8.652;2024-01-30T03:31:56;122;112;
44684;PMS5003;76140;45.696;8.652;2024-01-30T03:34:21;123;116;
44684;PMS5003;76140;45.696;8.652;2024-01-30T03:36:47;132;127;
44684;PMS5003;76140;45.696;8.652;2024-01-30T03:39:12;136;128;
44684;PMS5003;76140;45.696;8.652;2024-01-30T03:41:37;122;117;
44684;PMS5003;76140;45.696;8.652;2024-01-30T03:44:03;122;111;
44684;PMS5003;76140;45.696;8.652;2024-01-30T03:46:28;115;109;
44684;PMS5003;76140;45.696;8.652;2024-01-30T03:48:53;119;115;
44684;PMS5003;76140;45.696;8.652;2024-01-30T03:51:19;116;106;
44684;PMS5003;76140;45.696;8.652;2024-01-30T03:53:44;116;103;
44684;PMS5003;76140;45.696;8.652;2024-01-30T03:56:10;111;104;
44684;PMS5003;76140;45.696;8.652;2024-01-30T03:58:36;106;95;
44684;PMS5003;76140;45.696;8.652;2024-01-30T04:01:01;110;103;
44684;PMS5003;76140;45.696;8.652;2024-01-30T04:03:27;118;100;
44684;PMS5003;76140;45.696;8.652;2024-01-30T04:05:52;111;103;
44684;PMS5003;76140;45.696;8.652;2024-01-30T04:08:18;106;98;
44684;PMS5003;76140;45.696;8.652;2024-01-30T04:10:43;123;108;
44684;PMS5003;76140;45.696;8.652;2024-01-30T04:13:09;129;117;
44684;PMS5003;76140;45.696;8.652;2024-01-30T04:15:35;108;99;
44684;PMS5003;76140;45.696;8.652;2024-01-30T04:18:00;122;105;
44684;PMS5003;76140;45.696;8.652;2024-01-30T04:20:25;120;107;
44684;PMS5003;76140;45.696;8.652;2024-01-30T04:22:51;107;102;
44684;PMS5003;76140;45.696;8.652;2024-01-30T04:25:16;113;102;
44684;PMS5003;76140;45.696;8.652;2024-01-30T04:27:41;114;102;
44684;PMS5003;76140;45.696;8.652;2024-01-30T04:30:07;117;106;
44684;PMS5003;76140;45.696;8.652;2024-01-30T04:32:33;117;107;
44684;PMS5003;76140;45.696;8.652;2024-01-30T04:34:58;104;96;
44684;PMS5003;76140;45.696;8.652;2024-01-30T04:37:24;111;99;
44684;PMS5003;76140;45.696;8.652;2024-01-30T04:39:49;115;102;
44684;PMS5003;76140;45.696;8.652;2024-01-30T04:42:14;104;97;
44684;PMS5003;76140;45.696;8.652;2024-01-30T04:44:40;111;103;
44684;PMS5003;76140;45.696;8.652;2024-01-30T04:47:06;117;104;
44684;PMS5003;76140;45.696;8.652;2024-01-30T04:49:31;112;105;
44684;PMS5003;76140;45.696;8.652;2024-01-30T04:51:56;98;92;
44684;PMS5003;76140;45.696;8.652;2024-01-30T04:54:22;101;96;
44684;PMS5003;76140;45.696;8.652;2024-01-30T04:56:48;115;108;
44684;PMS5003;76140;45.696;8.652;2024-01-30T04:59:13;112;105;
44684;PMS5003;76140;45.696;8.652;2024-01-30T05:01:38;119;111;
44684;PMS5003;76140;45.696;8.652;2024-01-30T05:04:07;125;119;
44684;PMS5003;76140;45.696;8.652;2024-01-30T05:06:30;114;107;
44684;PMS5003;76140;45.696;8.652;2024-01-30T05:08:56;115;106;
44684;PMS5003;76140;45.696;8.652;2024-01-30T05:11:21;110;100;
44684;PMS5003;76140;45.696;8.652;2024-01-30T05:13:46;128;113;
44684;PMS5003;76140;45.696;8.652;2024-01-30T05:16:12;118;107;
44684;PMS5003;76140;45.696;8.652;2024-01-30T05:18:38;112;107;
44684;PMS5003;76140;45.696;8.652;2024-01-30T05:21:03;115;104;
44684;PMS5003;76140;45.696;8.652;2024-01-30T05:23:28;119;103;
44684;PMS5003;76140;45.696;8.652;2024-01-30T05:25:54;120;112;
44684;PMS5003;76140;45.696;8.652;2024-01-30T05:28:19;115;106;
44684;PMS5003;76140;45.696;8.652;2024-01-30T05:30:45;124;110;
44684;PMS5003;76140;45.696;8.652;2024-01-30T05:33:11;125;112;
44684;PMS5003;76140;45.696;8.652;2024-01-30T05:35:36;126;111;
44684;PMS5003;76140;45.696;8.652;2024-01-30T05:38:02;105;96;
44684;PMS5003;76140;45.696;8.652;2024-01-30T05:40:28;111;104;
44684;PMS5003;76140;45.696;8.652;2024-01-30T05:42:53;116;107;
44684;PMS5003;76140;45.696;8.652;2024-01-30T05:45:18;120;108;
44684;PMS5003;76140;45.696;8.652;2024-01-30T05:47:44;115;107;
44684;PMS5003;76140;45.696;8.652;2024-01-30T05:50:10;122;104;
44684;PMS5003;76140;45.696;8.652;2024-01-30T05:52:35;116;109;
44684;PMS5003;76140;45.696;8.652;2024-01-30T05:55:00;121;112;
44684;PMS5003;76140;45.696;8.652;2024-01-30T05:57:26;115;107;
44684;PMS5003;76140;45.696;8.652;2024-01-30T05:59:51;122;118;
44684;PMS5003;76140;45.696;8.652;2024-01-30T06:02:17;126;113;
44684;PMS5003;76140;45.696;8.652;2024-01-30T06:04:42;120;113;
44684;PMS5003;76140;45.696;8.652;2024-01-30T06:07:08;122;112;
44684;PMS5003;76140;45.696;8.652;2024-01-30T06:09:33;127;112;
44684;PMS5003;76140;45.696;8.652;2024-01-30T06:11:59;114;99;
44684;PMS5003;76140;45.696;8.652;2024-01-30T06:14:24;132;124;
44684;PMS5003;76140;45.696;8.652;2024-01-30T06:16:50;118;108;
44684;PMS5003;76140;45.696;8.652;2024-01-30T06:19:15;123;114;
44684;PMS5003;76140;45.696;8.652;2024-01-30T06:21:40;127;116;
44684;PMS5003;76140;45.696;8.652;2024-01-30T06:24:06;130;110;
44684;PMS5003;76140;45.696;8.652;2024-01-30T06:26:32;112;108;
44684;PMS5003;76140;45.696;8.652;2024-01-30T06:28:57;116;110;
44684;PMS5003;76140;45.696;8.652;2024-01-30T06:31:23;120;107;
44684;PMS5003;76140;45.696;8.652;2024-01-30T06:33:48;115;107;
44684;PMS5003;76140;45.696;8.652;2024-01-30T06:36:13;111;109;
44684;PMS5003;76140;45.696;8.652;2024-01-30T06:38:39;111;108;
44684;PMS5003;76140;45.696;8.652;2024-01-30T06:41:04;126;115;
44684;PMS5003;76140;45.696;8.652;2024-01-30T06:43:30;117;107;
44684;PMS5003;76140;45.696;8.652;2024-01-30T06:45:55;136;114;
44684;PMS5003;76140;45.696;8.652;2024-01-30T06:48:21;117;113;
44684;PMS5003;76140;45.696;8.652;2024-01-30T06:50:46;118;112;
44684;PMS5003;76140;45.696;8.652;2024-01-30T06:53:12;117;109;
44684;PMS5003;76140;45.696;8.652;2024-01-30T06:55:37;121;108;
44684;PMS5003;76140;45.696;8.652;2024-01-30T06:58:03;123;115;
44684;PMS5003;76140;45.696;8.652;2024-01-30T07:00:28;117;108;
44684;PMS5003;76140;45.696;8.652;2024-01-30T07:02:53;168;159;
44684;PMS5003;76140;45.696;8.652;2024-01-30T07:05:18;113;107;
44684;PMS5003;76140;45.696;8.652;2024-01-30T07:07:44;144;135;
44684;PMS5003;76140;45.696;8.652;2024-01-30T07:10:09;140;133;
44684;PMS5003;76140;45.696;8.652;2024-01-30T07:12:34;131;126;
44684;PMS5003;76140;45.696;8.652;2024-01-30T07:15:00;143;136;
44684;PMS5003;76140;45.696;8.652;2024-01-30T07:17:25;120;110;
44684;PMS5003;76140;45.696;8.652;2024-01-30T07:19:50;109;100;
44684;PMS5003;76140;45.696;8.652;2024-01-30T07:22:16;137;128;
44684;PMS5003;76140;45.696;8.652;2024-01-30T07:24:42;116;107;
44684;PMS5003;76140;45.696;8.652;2024-01-30T07:27:06;121;110;
44684;PMS5003;76140;45.696;8.652;2024-01-30T07:29:32;122;117;
44684;PMS5003;76140;45.696;8.652;2024-01-30T07:31:57;124;107;
44684;PMS5003;76140;45.696;8.652;2024-01-30T07:34:22;112;103;
44684;PMS5003;76140;45.696;8.652;2024-01-30T07:36:47;108;100;
44684;PMS5003;76140;45.696;8.652;2024-01-30T07:39:12;100;95;
44684;PMS5003;76140;45.696;8.652;2024-01-30T07:41:38;108;101;
44684;PMS5003;76140;45.696;8.652;2024-01-30T07:44:04;113;107;
44684;PMS5003;76140;45.696;8.652;2024-01-30T07:46:29;108;97;
44684;PMS5003;76140;45.696;8.652;2024-01-30T07:48:55;98;96;
44684;PMS5003;76140;45.696;8.652;2024-01-30T07:51:21;103;93;
44684;PMS5003;76140;45.696;8.652;2024-01-30T07:53:46;95;90;
44684;PMS5003;76140;45.696;8.652;2024-01-30T07:56:11;108;100;
44684;PMS5003;76140;45.696;8.652;2024-01-30T07:58:37;97;93;
44684;PMS5003;76140;45.696;8.652;2024-01-30T08:01:02;102;93;
44684;PMS5003;76140;45.696;8.652;2024-01-30T08:03:28;93;87;
44684;PMS5003;76140;45.696;8.652;2024-01-30T08:05:53;95;89;
44684;PMS5003;76140;45.696;8.652;2024-01-30T08:08:18;101;92;
44684;PMS5003;76140;45.696;8.652;2024-01-30T08:10:44;104;94;
44684;PMS5003;76140;45.696;8.652;2024-01-30T08:13:09;99;91;
44684;PMS5003;76140;45.696;8.652;2024-01-30T08:15:35;94;89;
44684;PMS5003;76140;45.696;8.652;2024-01-30T08:18:01;103;94;
44684;PMS5003;76140;45.696;8.652;2024-01-30T08:20:26;99;92;
44684;PMS5003;76140;45.696;8.652;2024-01-30T08:22:51;96;89;
44684;PMS5003;76140;45.696;8.652;2024-01-30T08:25:17;99;88;
44684;PMS5003;76140;45.696;8.652;2024-01-30T08:27:42;86;82;
44684;PMS5003;76140;45.696;8.652;2024-01-30T08:30:08;85;82;
44684;PMS5003;76140;45.696;8.652;2024-01-30T08:32:33;92;83;
44684;PMS5003;76140;45.696;8.652;2024-01-30T08:34:59;94;87;
44684;PMS5003;76140;45.696;8.652;2024-01-30T08:37:24;101;91;
44684;PMS5003;76140;45.696;8.652;2024-01-30T08:39:49;94;84;
44684;PMS5003;76140;45.696;8.652;2024-01-30T08:42:14;98;91;
44684;PMS5003;76140;45.696;8.652;2024-01-30T08:44:39;95;90;
44684;PMS5003;76140;45.696;8.652;2024-01-30T08:47:05;100;97;
44684;PMS5003;76140;45.696;8.652;2024-01-30T08:49:30;83;81;
44684;PMS5003;76140;45.696;8.652;2024-01-30T08:51:56;96;84;
44684;PMS5003;76140;45.696;8.652;2024-01-30T08:54:21;95;89;
44684;PMS5003;76140;45.696;8.652;2024-01-30T08:56:46;93;85;
44684;PMS5003;76140;45.696;8.652;2024-01-30T08:59:12;91;86;
44684;PMS5003;76140;45.696;8.652;2024-01-30T09:01:37;88;86;
44684;PMS5003;76140;45.696;8.652;2024-01-30T09:04:03;96;90;
44684;PMS5003;76140;45.696;8.652;2024-01-30T09:06:28;83;79;
44684;PMS5003;76140;45.696;8.652;2024-01-30T09:08:54;86;83;
44684;PMS5003;76140;45.696;8.652;2024-01-30T09:11:19;93;91;
44684;PMS5003;76140;45.696;8.652;2024-01-30T09:13:45;102;93;
44684;PMS5003;76140;45.696;8.652;2024-01-30T09:16:10;103;97;
44684;PMS5003;76140;45.696;8.652;2024-01-30T09:18:35;99;96;
44684;PMS5003;76140;45.696;8.652;2024-01-30T09:21:01;100;90;
44684;PMS5003;76140;45.696;8.652;2024-01-30T09:23:26;82;79;
44684;PMS5003;76140;45.696;8.652;2024-01-30T09:25:51;89;82;
44684;PMS5003;76140;45.696;8.652;2024-01-30T09:28:17;82;75;
44684;PMS5003;76140;45.696;8.652;2024-01-30T09:30:42;85;79;
44684;PMS5003;76140;45.696;8.652;2024-01-30T09:33:07;81;73;
44684;PMS5003;76140;45.696;8.652;2024-01-30T09:35:33;81;74;
44684;PMS5003;76140;45.696;8.652;2024-01-30T09:37:58;92;84;
44684;PMS5003;76140;45.696;8.652;2024-01-30T09:40:23;89;83;
44684;PMS5003;76140;45.696;8.652;2024-01-30T09:42:49;84;76;
44684;PMS5003;76140;45.696;8.652;2024-01-30T09:45:14;82;80;
44684;PMS5003;76140;45.696;8.652;2024-01-30T09:47:40;83;80;
44684;PMS5003;76140;45.696;8.652;2024-01-30T09:50:05;89;81;
44684;PMS5003;76140;45.696;8.652;2024-01-30T09:52:30;86;81;
44684;PMS5003;76140;45.696;8.652;2024-01-30T09:54:55;85;82;
44684;PMS5003;76140;45.696;8.652;2024-01-30T09:57:21;80;76;
44684;PMS5003;76140;45.696;8.652;2024-01-30T09:59:47;80;75;
44684;PMS5003;76140;45.696;8.652;2024-01-30T10:02:13;74;72;
44684;PMS5003;76140;45.696;8.652;2024-01-30T10:04:38;64;61;
44684;PMS5003;76140;45.696;8.652;2024-01-30T10:07:04;67;63;
44684;PMS5003;76140;45.696;8.652;2024-01-30T10:09:31;63;62;
44684;PMS5003;76140;45.696;8.652;2024-01-30T10:11:55;69;67;
44684;PMS5003;76140;45.696;8.652;2024-01-30T10:14:20;68;64;
44684;PMS5003;76140;45.696;8.652;2024-01-30T10:16:46;75;72;
44684;PMS5003;76140;45.696;8.652;2024-01-30T10:19:11;74;72;
44684;PMS5003;76140;45.696;8.652;2024-01-30T10:21:37;69;66;
44684;PMS5003;76140;45.696;8.652;2024-01-30T10:24:03;74;70;
44684;PMS5003;76140;45.696;8.652;2024-01-30T10:26:28;83;75;
44684;PMS5003;76140;45.696;8.652;2024-01-30T10:28:53;70;66;
44684;PMS5003;76140;45.696;8.652;2024-01-30T10:31:18;75;68;
44684;PMS5003;76140;45.696;8.652;2024-01-30T10:33:44;79;73;
44684;PMS5003;76140;45.696;8.652;2024-01-30T10:36:09;77;69;
44684;PMS5003;76140;45.696;8.652;2024-01-30T10:38:34;70;65;
44684;PMS5003;76140;45.696;8.652;2024-01-30T10:41:01;78;73;
44684;PMS5003;76140;45.696;8.652;2024-01-30T10:43:29;74;71;
44684;PMS5003;76140;45.696;8.652;2024-01-30T10:45:50;71;69;
44684;PMS5003;76140;45.696;8.652;2024-01-30T10:48:16;78;73;
44684;PMS5003;76140;45.696;8.652;2024-01-30T10:50:41;68;63;
44684;PMS5003;76140;45.696;8.652;2024-01-30T10:53:06;70;65;
44684;PMS5003;76140;45.696;8.652;2024-01-30T10:55:31;70;61;
44684;PMS5003;76140;45.696;8.652;2024-01-30T10:57:57;71;67;
44684;PMS5003;76140;45.696;8.652;2024-01-30T11:00:22;74;70;
44684;PMS5003;76140;45.696;8.652;2024-01-30T11:02:47;70;67;
44684;PMS5003;76140;45.696;8.652;2024-01-30T11:05:12;75;69;
44684;PMS5003;76140;45.696;8.652;2024-01-30T11:07:39;72;66;
44684;PMS5003;76140;45.696;8.652;2024-01-30T11:10:04;65;62;
44684;PMS5003;76140;45.696;8.652;2024-01-30T11:12:29;65;62;
44684;PMS5003;76140;45.696;8.652;2024-01-30T11:15:02;65;62;
44684;PMS5003;76140;45.696;8.652;2024-01-30T11:17:19;67;63;
44684;PMS5003;76140;45.696;8.652;2024-01-30T11:19:46;59;58;
44684;PMS5003;76140;45.696;8.652;2024-01-30T11:22:10;52;51;
44684;PMS5003;76140;45.696;8.652;2024-01-30T11:24:39;50;48;
44684;PMS5003;76140;45.696;8.652;2024-01-30T11:27:01;51;44;
44684;PMS5003;76140;45.696;8.652;2024-01-30T11:29:27;56;53;
44684;PMS5003;76140;45.696;8.652;2024-01-30T11:31:52;55;53;
44684;PMS5003;76140;45.696;8.652;2024-01-30T11:34:18;51;50;
44684;PMS5003;76140;45.696;8.652;2024-01-30T11:36:43;50;49;
44684;PMS5003;76140;45.696;8.652;2024-01-30T11:39:09;51;48;
44684;PMS5003;76140;45.696;8.652;2024-01-30T11:41:34;49;46;
44684;PMS5003;76140;45.696;8.652;2024-01-30T11:43:59;51;49;
44684;PMS5003;76140;45.696;8.652;2024-01-30T11:46:25;57;49;
44684;PMS5003;76140;45.696;8.652;2024-01-30T11:48:50;51;49;
44684;PMS5003;76140;45.696;8.652;2024-01-30T11:51:15;39;39;
44684;PMS5003;76140;45.696;8.652;2024-01-30T11:53:41;43;40;
44684;PMS5003;76140;45.696;8.652;2024-01-30T11:56:06;50;48;
44684;PMS5003;76140;45.696;8.652;2024-01-30T11:58:32;47;47;
44684;PMS5003;76140;45.696;8.652;2024-01-30T12:00:57;49;48;
44684;PMS5003;76140;45.696;8.652;2024-01-30T12:03:23;44;42;
44684;PMS5003;76140;45.696;8.652;2024-01-30T12:05:54;41;39;
44684;PMS5003;76140;45.696;8.652;2024-01-30T12:08:14;40;38;
44684;PMS5003;76140;45.696;8.652;2024-01-30T12:10:39;44;42;
44684;PMS5003;76140;45.696;8.652;2024-01-30T12:13:04;41;39;
44684;PMS5003;76140;45.696;8.652;2024-01-30T12:15:30;31;31;
44684;PMS5003;76140;45.696;8.652;2024-01-30T12:18:03;34;34;
44684;PMS5003;76140;45.696;8.652;2024-01-30T12:20:20;34;30;
44684;PMS5003;76140;45.696;8.652;2024-01-30T12:22:46;23;23;
44684;PMS5003;76140;45.696;8.652;2024-01-30T12:25:11;32;29;
44684;PMS5003;76140;45.696;8.652;2024-01-30T12:27:36;35;35;
44684;PMS5003;76140;45.696;8.652;2024-01-30T12:30:05;35;33;
44684;PMS5003;76140;45.696;8.652;2024-01-30T12:32:27;46;42;
44684;PMS5003;76140;45.696;8.652;2024-01-30T12:34:54;55;52;
44684;PMS5003;76140;45.696;8.652;2024-01-30T12:37:18;47;44;
44684;PMS5003;76140;45.696;8.652;2024-01-30T12:39:44;43;40;
44684;PMS5003;76140;45.696;8.652;2024-01-30T12:42:09;46;45;
44684;PMS5003;76140;45.696;8.652;2024-01-30T12:44:35;46;44;
44684;PMS5003;76140;45.696;8.652;2024-01-30T12:47:02;41;39;
44684;PMS5003;76140;45.696;8.652;2024-01-30T12:49:26;46;43;
44684;PMS5003;76140;45.696;8.652;2024-01-30T12:51:51;40;38;
44684;PMS5003;76140;45.696;8.652;2024-01-30T12:54:17;42;38;
44684;PMS5003;76140;45.696;8.652;2024-01-30T12:56:42;40;37;
44684;PMS5003;76140;45.696;8.652;2024-01-30T12:59:08;42;40;
44684;PMS5003;76140;45.696;8.652;2024-01-30T13:01:33;47;43;
44684;PMS5003;76140;45.696;8.652;2024-01-30T13:03:58;54;49;
44684;PMS5003;76140;45.696;8.652;2024-01-30T13:06:24;45;44;
44684;PMS5003;76140;45.696;8.652;2024-01-30T13:08:49;51;50;
44684;PMS5003;76140;45.696;8.652;2024-01-30T13:11:14;46;43;
44684;PMS5003;76140;45.696;8.652;2024-01-30T13:13:40;46;44;
44684;PMS5003;76140;45.696;8.652;2024-01-30T13:16:06;53;48;
44684;PMS5003;76140;45.696;8.652;2024-01-30T13:18:31;52;48;
44684;PMS5003;76140;45.696;8.652;2024-01-30T13:20:56;47;46;
44684;PMS5003;76140;45.696;8.652;2024-01-30T13:23:21;49;47;
44684;PMS5003;76140;45.696;8.652;2024-01-30T13:25:47;58;56;
44684;PMS5003;76140;45.696;8.652;2024-01-30T13:28:13;57;55;
44684;PMS5003;76140;45.696;8.652;2024-01-30T13:30:39;63;58;
44684;PMS5003;76140;45.696;8.652;2024-01-30T13:33:04;60;57;
44684;PMS5003;76140;45.696;8.652;2024-01-30T13:35:30;68;67;
44684;PMS5003;76140;45.696;8.652;2024-01-30T13:37:55;57;53;
44684;PMS5003;76140;45.696;8.652;2024-01-30T13:40:21;54;51;
44684;PMS5003;76140;45.696;8.652;2024-01-30T13:42:46;57;54;
44684;PMS5003;76140;45.696;8.652;2024-01-30T13:45:12;61;59;
44684;PMS5003;76140;45.696;8.652;2024-01-30T13:47:37;57;53;
44684;PMS5003;76140;45.696;8.652;2024-01-30T13:50:03;61;57;
44684;PMS5003;76140;45.696;8.652;2024-01-30T13:52:28;57;52;
44684;PMS5003;76140;45.696;8.652;2024-01-30T13:54:54;56;54;
44684;PMS5003;76140;45.696;8.652;2024-01-30T13:57:20;53;51;
44684;PMS5003;76140;45.696;8.652;2024-01-30T13:59:45;52;47;
44684;PMS5003;76140;45.696;8.652;2024-01-30T14:02:10;52;51;
44684;PMS5003;76140;45.696;8.652;2024-01-30T14:04:36;47;46;
44684;PMS5003;76140;45.696;8.652;2024-01-30T14:07:02;55;51;
44684;PMS5003;76140;45.696;8.652;2024-01-30T14:09:27;47;43;
44684;PMS5003;76140;45.696;8.652;2024-01-30T14:11:52;50;45;
44684;PMS5003;76140;45.696;8.652;2024-01-30T14:14:17;49;48;
44684;PMS5003;76140;45.696;8.652;2024-01-30T14:16:43;52;49;
44684;PMS5003;76140;45.696;8.652;2024-01-30T14:19:09;51;48;
44684;PMS5003;76140;45.696;8.652;2024-01-30T14:21:34;49;47;
44684;PMS5003;76140;45.696;8.652;2024-01-30T14:24:00;53;47;
44684;PMS5003;76140;45.696;8.652;2024-01-30T14:26:25;45;44;
44684;PMS5003;76140;45.696;8.652;2024-01-30T14:28:51;47;42;
44684;PMS5003;76140;45.696;8.652;2024-01-30T14:31:16;47;46;
44684;PMS5003;76140;45.696;8.652;2024-01-30T14:33:41;43;41;
44684;PMS5003;76140;45.696;8.652;2024-01-30T14:36:07;42;40;
44684;PMS5003;76140;45.696;8.652;2024-01-30T14:38:32;45;44;
44684;PMS5003;76140;45.696;8.652;2024-01-30T14:40:57;48;42;
44684;PMS5003;76140;45.696;8.652;2024-01-30T14:43:23;47;45;
44684;PMS5003;76140;45.696;8.652;2024-01-30T14:45:49;44;43;
44684;PMS5003;76140;45.696;8.652;2024-01-30T14:48:14;41;39;
44684;PMS5003;76140;45.696;8.652;2024-01-30T14:50:40;45;45;
44684;PMS5003;76140;45.696;8.652;2024-01-30T14:53:05;43;41;
44684;PMS5003;76140;45.696;8.652;2024-01-30T14:55:30;47;44;
44684;PMS5003;76140;45.696;8.652;2024-01-30T14:57:56;48;41;
44684;PMS5003;76140;45.696;8.652;2024-01-30T15:00:21;45;42;
44684;PMS5003;76140;45.696;8.652;2024-01-30T15:02:46;52;46;
44684;PMS5003;76140;45.696;8.652;2024-01-30T15:05:12;48;47;
44684;PMS5003;76140;45.696;8.652;2024-01-30T15:07:38;51;47;
44684;PMS5003;76140;45.696;8.652;2024-01-30T15:10:03;56;52;
44684;PMS5003;76140;45.696;8.652;2024-01-30T15:12:29;52;47;
44684;PMS5003;76140;45.696;8.652;2024-01-30T15:14:54;54;50;
44684;PMS5003;76140;45.696;8.652;2024-01-30T15:17:20;44;44;
44684;PMS5003;76140;45.696;8.652;2024-01-30T15:19:45;43;40;
44684;PMS5003;76140;45.696;8.652;2024-01-30T15:22:11;49;45;
44684;PMS5003;76140;45.696;8.652;2024-01-30T15:24:36;50;45;
44684;PMS5003;76140;45.696;8.652;2024-01-30T15:27:01;46;44;
44684;PMS5003;76140;45.696;8.652;2024-01-30T15:29:27;52;49;
44684;PMS5003;76140;45.696;8.652;2024-01-30T15:31:52;47;46;
44684;PMS5003;76140;45.696;8.652;2024-01-30T15:34:18;52;49;
44684;PMS5003;76140;45.696;8.652;2024-01-30T15:36:43;50;47;
44684;PMS5003;76140;45.696;8.652;2024-01-30T15:39:08;47;43;
44684;PMS5003;76140;45.696;8.652;2024-01-30T15:41:34;52;51;
44684;PMS5003;76140;45.696;8.652;2024-01-30T15:43:59;51;49;
44684;PMS5003;76140;45.696;8.652;2024-01-30T15:46:24;57;55;
44684;PMS5003;76140;45.696;8.652;2024-01-30T15:48:50;53;48;